Meteo Giornale » Osservazioni meteo Italia » Lamezia Terme

ore: 01:50 - Osservazioni Meteo Lamezia Terme
Lat. 38° 54' N Lon. 16° 15' E Alt. 15 metri s.l.m.

sereno Europe/Rome

25 °C

Sereno

Temp. 24 Ore

20 °C

41 °C

Est

14.8 Km/h

Dew point 14 °C

Umidità 50 %

Visibilità  10 Km

Il sole sorge alle ore 05:58

Il sole tramonta alle ore 20:03

Data e Ora Cielo e Fenomeni T °C DP °C Um. % Pres. hPa Vis. km Vento km/h
Oggi h: 01:50 sereno Sereno 25 14 50 1011 10 E 14.8
Oggi h: 01:20 sereno Sereno 25 13 47 1012 10 E/NE 11.1
Oggi h: 00:50 sereno Sereno 25 13 47 1012 10 E/NE 11.1
Oggi h: 00:20 sereno Sereno 26 13 44 1012 10 E/NE 9.3
Ieri h: 23:50 sereno Sereno 26 14 47 1012 10 E/NE 11.1
Ieri h: 23:20 sereno Sereno 26 16 54 1012 10 E 13
Ieri h: 22:50 sereno Sereno 27 16 50 1012 10 E 11.1
Ieri h: 22:20 sereno Sereno 27 18 57 1012 10 E/NE 7.4
Ieri h: 21:50 sereno Sereno 28 19 58 1012 10 E/NE 11.1
Ieri h: 21:20 sereno Sereno 28 20 61 1012 10 E/NE 9.3
Ieri h: 20:20 sereno Sereno 29 20 58 1012 10 E 7.4
Ieri h: 19:50 sereno Sereno 30 21 58 1012 10 N 5.5
Ieri h: 19:20 sereno Sereno 32 21 52 1012 10 N 7.4
Ieri h: 18:50 sereno Sereno 33 22 52 1012 10 N 5.5
Ieri h: 18:20 sereno Sereno 33 18 41 1012 10 O 11.1
Ieri h: 17:50 sereno Sereno 34 19 41 1012 10 O/SO 11.1
Ieri h: 17:20 sereno Sereno 34 23 52 1012 10 SO 11.1
Ieri h: 16:50 sereno Sereno 34 21 46 1013 10 SO 13
Ieri h: 16:20 sereno Sereno 35 16 32 1013 10 O 16.7
Ieri h: 15:50 sereno Sereno 36 18 34 1013 10 SO 14.8
Ieri h: 15:20 sereno Sereno 37 15 27 1013 10 SO 13
Ieri h: 14:50 sereno Sereno 40 16 24 1013 10 O/SO 13
Ieri h: 14:20 sereno Sereno 41 9 14 1013 10 O 9.3
Ieri h: 13:50 sereno Sereno 41 14 20 1013 10 N 5.5
Ieri h: 13:20 sereno Sereno 40 12 19 1013 10 E 13
Ieri h: 11:50 sereno Sereno 38 13 22 1014 10 E/NE 18.5
Ieri h: 11:20 sereno Sereno 37 13 23 1014 10 E 20.3
Ieri h: 10:50 sereno Sereno 37 13 23 1014 10 E 20.3
Ieri h: 10:20 sereno Sereno 36 12 23 1014 10 E 20.3
Ieri h: 09:50 sereno Sereno 35 13 26 1014 10 E 22.2
Ieri h: 09:20 sereno Sereno 34 13 28 1014 10 E/NE 18.5
Ieri h: 08:50 poco_nuvoloso Poco Nuvoloso 33 13 29 1014 10 E/NE 18.5
Ieri h: 08:20 sereno Sereno 31 13 33 1014 10 E/NE 14.8
Ieri h: 07:50 sereno Sereno 28 14 42 1014 10 NE 11.1
Ieri h: 07:20 sereno Sereno 24 15 57 1014 10 E 13
Ieri h: 06:50 sereno Sereno 22 15 64 1014 10 E 13
Ieri h: 06:20 sereno Sereno 20 15 72 1014 10 E/NE 9.3
Ieri h: 05:50 sereno Sereno 20 15 72 1014 10 E 11.1
Ieri h: 05:20 sereno Sereno 20 15 72 1014 10 E/NE 11.1
Ieri h: 04:50 sereno Sereno 20 15 72 1014 10 E/NE 9.3
Ieri h: 04:20 sereno Sereno 20 15 72 1014 10 E/NE 7.4
Ieri h: 03:50 sereno Sereno 20 15 72 1014 10 E 11.1
Ieri h: 03:20 sereno Sereno 22 14 60 1014 10 N/NE 7.4
Ieri h: 02:50 sereno Sereno 22 15 64 1014 10 NE 7.4